createdAt,value
2023-01-18T00:07:36.807Z,82.19
2023-01-18T00:17:58.193Z,82.24
2023-01-18T00:28:23.011Z,81.92
2023-01-18T00:38:51.351Z,81.36
2023-01-18T00:49:12.697Z,81.34
2023-01-18T00:59:34.069Z,82.11
2023-01-18T01:09:57.234Z,82.79
2023-01-18T01:20:37.246Z,82.32
2023-01-18T01:30:59.683Z,83.43
2023-01-18T01:41:25.330Z,82.54
2023-01-18T01:52:03.102Z,82.83
2023-01-18T02:02:24.524Z,83.30
2023-01-18T02:12:47.529Z,82.05
2023-01-18T02:23:17.955Z,83.43
2023-01-18T02:34:02.189Z,82.60
2023-01-18T02:44:48.022Z,83.28
2023-01-18T02:55:12.721Z,83.55
2023-01-18T03:05:35.238Z,83.27
2023-01-18T03:16:09.298Z,82.82
2023-01-18T03:26:34.129Z,83.00
2023-01-18T03:36:56.261Z,83.37
2023-01-18T03:47:17.732Z,83.04
2023-01-18T03:57:39.044Z,82.57
2023-01-18T04:08:00.392Z,83.31
2023-01-18T04:18:21.782Z,83.35
2023-01-18T04:28:43.175Z,83.87
2023-01-18T04:39:04.566Z,82.99
2023-01-18T04:49:27.696Z,83.54
2023-01-18T04:59:49.057Z,83.35
2023-01-18T05:10:10.636Z,83.87
2023-01-18T05:20:31.983Z,84.72
2023-01-18T05:30:54.579Z,85.18
2023-01-18T05:41:16.024Z,84.40
2023-01-18T05:51:37.747Z,83.34
2023-01-18T06:01:59.249Z,83.38
2023-01-18T06:12:21.594Z,83.76
2023-01-18T06:22:45.458Z,84.20
2023-01-18T06:33:07.294Z,83.99
2023-01-18T06:43:29.256Z,83.60
2023-01-18T06:53:50.650Z,83.02
2023-01-18T07:04:12.212Z,84.39
2023-01-18T07:14:34.151Z,83.97
2023-01-18T07:24:55.495Z,83.28
2023-01-18T07:35:18.306Z,83.41
2023-01-18T07:45:39.784Z,82.94
2023-01-18T07:56:05.913Z,83.03
2023-01-18T08:06:27.369Z,84.91
2023-01-18T08:16:48.765Z,83.56
2023-01-18T08:27:10.140Z,84.08
2023-01-18T08:37:32.731Z,84.16
2023-01-18T08:47:58.463Z,84.61
2023-01-18T08:58:19.853Z,84.81
2023-01-18T09:08:41.289Z,83.73
2023-01-18T09:19:06.264Z,84.44
2023-01-18T09:29:27.703Z,83.41
2023-01-18T09:39:52.777Z,82.77
2023-01-18T09:50:18.773Z,82.75
2023-01-18T10:00:42.624Z,83.01
2023-01-18T10:11:09.956Z,82.14
2023-01-18T10:21:51.935Z,83.07
2023-01-18T10:32:17.684Z,82.25
2023-01-18T10:42:45.238Z,82.09
2023-01-18T10:53:25.545Z,81.70
2023-01-18T11:03:48.733Z,81.14
2023-01-18T11:14:23.833Z,80.64
2023-01-18T11:24:45.596Z,80.28
2023-01-18T11:35:08.618Z,79.37
2023-01-18T11:45:30.030Z,78.83
2023-01-18T11:55:56.005Z,78.35
2023-01-18T12:06:20.422Z,78.05
2023-01-18T12:16:57.248Z,78.91
2023-01-18T12:27:40.067Z,78.45
2023-01-18T12:38:17.454Z,77.54
2023-01-18T12:48:48.239Z,77.18
2023-01-18T12:59:17.736Z,77.10
2023-01-18T13:09:43.183Z,77.23
2023-01-18T13:20:09.555Z,76.89
2023-01-18T13:30:32.647Z,76.95
2023-01-18T13:41:01.096Z,78.27
2023-01-18T13:51:28.638Z,76.85
2023-01-18T14:01:50.594Z,76.99
2023-01-18T14:12:12.953Z,75.47
2023-01-18T14:23:01.796Z,76.67
2023-01-18T14:33:35.418Z,77.07
2023-01-18T14:43:56.860Z,76.47
2023-01-18T14:54:18.454Z,76.31
2023-01-18T15:04:44.456Z,76.35
2023-01-18T15:15:14.885Z,77.36
2023-01-18T15:25:36.324Z,77.68
2023-01-18T15:35:58.788Z,78.13
2023-01-18T15:46:20.287Z,78.03
2023-01-18T15:56:41.790Z,78.94
2023-01-18T16:07:21.979Z,79.45
2023-01-18T16:17:44.726Z,79.83
2023-01-18T16:28:06.181Z,80.15
2023-01-18T16:38:27.543Z,79.69
2023-01-18T16:48:48.903Z,80.06
2023-01-18T16:59:14.066Z,80.56
2023-01-18T17:09:47.322Z,80.79
2023-01-18T17:20:20.852Z,80.91
2023-01-18T17:30:43.675Z,81.16
2023-01-18T17:41:05.768Z,81.55
2023-01-18T17:51:28.985Z,81.44
2023-01-18T18:01:50.594Z,81.84
2023-01-18T18:12:12.358Z,81.55
2023-01-18T18:22:33.835Z,81.07
2023-01-18T18:32:55.259Z,81.26
2023-01-18T18:43:17.135Z,80.80
2023-01-18T18:53:40.197Z,81.26
2023-01-18T19:04:02.828Z,81.62
2023-01-18T19:14:27.191Z,81.66
2023-01-18T19:24:48.684Z,82.36
2023-01-18T19:35:10.138Z,81.98
2023-01-18T19:45:31.566Z,81.73
2023-01-18T19:56:06.415Z,81.00
2023-01-18T20:06:28.471Z,80.80
2023-01-18T20:16:49.876Z,80.59
2023-01-18T20:27:16.214Z,80.68
2023-01-18T20:37:38.082Z,80.21
2023-01-18T20:47:59.651Z,79.99
2023-01-18T20:58:22.473Z,80.95
2023-01-18T21:08:43.818Z,80.53
2023-01-18T21:19:05.191Z,80.44
2023-01-18T21:29:26.625Z,80.17
2023-01-18T21:39:48.050Z,80.58
2023-01-18T21:50:28.303Z,81.66
2023-01-18T22:00:49.790Z,81.48
2023-01-18T22:11:11.153Z,81.00
2023-01-18T22:21:32.819Z,80.56
2023-01-18T22:31:56.219Z,81.48
2023-01-18T22:42:17.698Z,81.25
2023-01-18T22:52:39.042Z,81.83
2023-01-18T23:03:00.418Z,82.24
2023-01-18T23:13:21.792Z,82.86
2023-01-18T23:23:43.211Z,82.42
2023-01-18T23:34:04.578Z,82.49
2023-01-18T23:44:44.596Z,82.46
2023-01-18T23:55:06.430Z,82.87
